Time;durP1;ratioP1;P1;durP2;ratioP2;P2;SDS_P1;SDS_P2;PMS_P1;PMS_P2;Temp;Humidity;BMP_temperature;BMP_pressure;BME280_temperature;BME280_humidity;BME280_pressure;Samples;Min_cycle;Max_cycle;Signal;HPM_P1;HPM_P2
2021/12/01 00:01:17;;;;;;;6.95;0.50;;;;;;;13.02;87.38;99419.56;7384021;19;20014;-79
2021/12/01 00:03:44;;;;;;;7.88;0.93;;;;;;;13.01;87.58;99400.25;7386597;19;20107;-79
2021/12/01 00:06:12;;;;;;;4.15;0.70;;;;;;;13.04;87.23;99396.41;7386670;19;20034;-79
2021/12/01 00:08:39;;;;;;;4.50;0.30;;;;;;;13.00;86.81;99382.81;7383097;19;20499;-80
2021/12/01 00:11:05;;;;;;;2.70;0.30;;;;;;;12.96;86.77;99371.03;7382664;19;20455;-78
2021/12/01 00:13:33;;;;;;;7.65;0.65;;;;;;;12.98;86.94;99371.63;7382862;19;20037;-79
2021/12/01 00:16:01;;;;;;;4.85;0.60;;;;;;;12.98;87.23;99360.25;7382128;19;20322;-80
2021/12/01 00:18:29;;;;;;;4.00;0.30;;;;;;;12.99;87.62;99348.69;7386817;19;20535;-79
2021/12/01 00:20:57;;;;;;;5.72;0.95;;;;;;;13.02;87.64;99341.16;7383785;19;20365;-79
2021/12/01 00:23:26;;;;;;;8.18;1.80;;;;;;;13.01;87.69;99321.06;7382597;19;20524;-79
2021/12/01 00:25:53;;;;;;;3.15;0.40;;;;;;;13.02;87.86;99321.88;7382127;19;20030;-79
2021/12/01 00:28:20;;;;;;;3.65;0.60;;;;;;;13.01;87.78;99320.25;7382683;19;20018;-79
2021/12/01 00:30:48;;;;;;;8.05;0.70;;;;;;;13.00;88.16;99319.44;7383760;19;20010;-79
2021/12/01 00:33:22;;;;;;;6.03;0.55;;;;;;;12.97;87.79;99301.38;7382716;19;20367;-79
2021/12/01 00:35:54;;;;;;;8.07;1.40;;;;;;;12.94;88.29;99298.34;7382577;19;20031;-79
2021/12/01 00:38:23;;;;;;;4.05;0.70;;;;;;;12.92;88.67;99287.16;7383061;19;20082;-79
2021/12/01 00:40:51;;;;;;;3.55;0.88;;;;;;;12.91;88.69;99293.44;7385739;19;20364;-78
2021/12/01 00:43:18;;;;;;;4.88;0.88;;;;;;;12.91;89.08;99290.81;7380695;19;20006;-79
2021/12/01 00:45:57;;;;;;;2.95;0.60;;;;;;;12.93;89.34;99284.31;7383829;19;20044;-79
2021/12/01 00:48:25;;;;;;;2.72;0.50;;;;;;;12.94;89.53;99285.94;7385204;19;20031;-81
2021/12/01 00:50:53;;;;;;;3.90;1.00;;;;;;;12.95;89.88;99276.19;7382476;19;20085;-79
2021/12/01 00:53:20;;;;;;;6.05;1.00;;;;;;;12.96;90.01;99261.97;7382601;19;20062;-79
2021/12/01 00:55:48;;;;;;;3.80;0.60;;;;;;;12.96;90.06;99261.97;7381948;19;20024;-79
2021/12/01 00:58:15;;;;;;;2.65;0.80;;;;;;;12.97;90.69;99237.19;7385860;19;20599;-79
2021/12/01 01:00:43;;;;;;;21.55;3.85;;;;;;;12.93;90.53;99242.06;7384732;19;20384;-79
2021/12/01 01:03:11;;;;;;;1.98;0.60;;;;;;;12.95;90.98;99228.69;7383856;19;20397;-78
2021/12/01 01:05:38;;;;;;;10.73;1.38;;;;;;;12.99;91.65;99229.88;7383372;19;20038;-79
2021/12/01 01:08:06;;;;;;;2.95;0.60;;;;;;;12.96;91.13;99217.88;7381907;19;20045;-78
2021/12/01 01:18:42;;;;;;;2.15;0.38;;;;;;;12.87;91.41;99200.66;7384409;19;20033;-79
2021/12/01 01:21:10;;;;;;;9.80;2.28;;;;;;;12.91;91.47;99201.03;7384228;19;20016;-79
2021/12/01 01:23:40;;;;;;;1.25;0.40;;;;;;;12.92;91.53;99194.75;7380687;19;20082;-79
2021/12/01 01:26:10;;;;;;;7.15;2.92;;;;;;;12.93;91.51;99199.84;7378428;19;20048;-78
2021/12/01 01:28:37;;;;;;;3.08;0.47;;;;;;;12.94;91.54;99208.56;7382818;19;20648;-79
2021/12/01 01:31:04;;;;;;;2.28;0.45;;;;;;;12.95;91.58;99192.53;7381185;19;20011;-79
2021/12/01 01:33:31;;;;;;;2.05;0.30;;;;;;;12.93;91.02;99199.03;7383582;19;20017;-78
2021/12/01 01:35:59;;;;;;;2.20;0.20;;;;;;;12.94;91.45;99200.66;7381728;19;20126;-79
2021/12/01 01:38:29;;;;;;;3.45;0.20;;;;;;;12.91;91.44;99183.38;7383547;19;20075;-79
2021/12/01 01:40:55;;;;;;;1.70;0.20;;;;;;;12.89;91.69;99188.06;7381313;19;20074;-79
2021/12/01 01:43:23;;;;;;;2.67;0.30;;;;;;;12.82;92.06;99203.13;7381188;19;20015;-79
2021/12/01 01:45:54;;;;;;;0.45;0.10;;;;;;;12.83;92.22;99196.81;7380062;19;20522;-79
2021/12/01 01:48:29;;;;;;;0.40;0.10;;;;;;;12.83;92.43;99196.81;7383510;19;20085;-79
2021/12/01 01:50:58;;;;;;;2.05;0.40;;;;;;;12.82;92.14;99190.72;7381486;19;20015;-77
2021/12/01 01:53:26;;;;;;;2.15;0.10;;;;;;;12.80;92.38;99192.75;7380047;19;20094;-78
2021/12/01 01:55:56;;;;;;;0.90;0.05;;;;;;;12.81;92.06;99196.22;7381636;19;20014;-79
2021/12/01 01:58:24;;;;;;;0.60;0.03;;;;;;;12.78;91.74;99186.91;7380730;19;20332;-79
2021/12/01 02:01:08;;;;;;;1.67;0.10;;;;;;;12.80;91.85;99190.13;7379976;19;20085;-79
2021/12/01 02:03:41;;;;;;;3.15;0.32;;;;;;;12.80;91.86;99184.84;7379350;19;20021;-79
2021/12/01 02:06:10;;;;;;;0.75;0.13;;;;;;;12.81;91.38;99183.81;7383865;19;20109;-79
2021/12/01 02:08:40;;;;;;;0.60;0.15;;;;;;;12.81;91.17;99175.09;7380934;19;20122;-79
2021/12/01 02:11:10;;;;;;;2.55;0.10;;;;;;;12.80;91.10;99173.47;7378481;19;20023;-79
2021/12/01 02:13:39;;;;;;;3.00;0.10;;;;;;;12.79;90.40;99167.41;7380548;19;20093;-79
2021/12/01 02:16:06;;;;;;;1.33;0.10;;;;;;;12.78;89.80;99151.78;7377222;19;20100;-78
2021/12/01 02:18:36;;;;;;;1.65;0.20;;;;;;;12.75;89.66;99158.25;7379775;19;20551;-79
2021/12/01 02:21:07;;;;;;;0.98;0.10;;;;;;;12.72;89.28;99139.41;7381814;19;20408;-79
2021/12/01 02:23:36;;;;;;;2.55;0.13;;;;;;;12.70;89.57;99154.63;7380754;19;20098;-78
2021/12/01 02:26:04;;;;;;;2.05;0.10;;;;;;;12.66;89.46;99143.69;7383732;19;20006;-79
2021/12/01 02:28:33;;;;;;;0.30;0.10;;;;;;;12.64;89.14;99142.28;7390021;19;20011;-79
2021/12/01 02:31:00;;;;;;;0.57;0.10;;;;;;;12.60;88.73;99147.13;7386927;19;20067;-79
2021/12/01 02:33:27;;;;;;;0.43;0.10;;;;;;;12.58;88.55;99132.56;7390183;19;20476;-79
2021/12/01 02:35:54;;;;;;;1.23;0.13;;;;;;;12.55;88.59;99139.03;7386627;19;20531;-79
2021/12/01 02:38:22;;;;;;;1.73;0.25;;;;;;;12.55;88.21;99130.31;7389377;19;20010;-79
2021/12/01 02:40:49;;;;;;;1.25;0.13;;;;;;;12.51;87.94;99129.91;7389736;19;20549;-78
2021/12/01 02:43:18;;;;;;;4.68;0.15;;;;;;;12.52;87.98;99112.28;7389039;19;20524;-79
2021/12/01 02:45:45;;;;;;;0.93;0.20;;;;;;;12.49;87.73;99108.22;7384695;19;20074;-79
2021/12/01 02:48:14;;;;;;;1.02;0.10;;;;;;;12.48;87.41;99100.50;7388347;19;20015;-78
2021/12/01 02:50:42;;;;;;;3.30;0.20;;;;;;;12.46;87.21;99099.91;7386998;19;20281;-79
2021/12/01 02:53:09;;;;;;;6.20;0.47;;;;;;;12.51;88.39;99089.53;7384768;19;20495;-79
2021/12/01 02:55:47;;;;;;;1.25;0.20;;;;;;;12.52;88.79;99075.34;7390090;19;20028;-78
2021/12/01 02:58:16;;;;;;;2.05;0.28;;;;;;;12.49;87.75;99075.75;7386657;19;20410;-79
2021/12/01 03:00:43;;;;;;;1.30;0.40;;;;;;;12.48;87.31;99076.78;7383422;19;20106;-78
2021/12/01 03:03:12;;;;;;;2.03;0.10;;;;;;;12.50;86.74;99078.16;7388570;19;20030;-77
2021/12/01 03:05:40;;;;;;;2.30;0.30;;;;;;;12.52;86.99;99073.50;7387921;19;20578;-79
2021/12/01 03:08:08;;;;;;;1.27;0.15;;;;;;;12.50;86.14;99059.69;7386805;19;20126;-79
2021/12/01 03:10:35;;;;;;;5.03;0.20;;;;;;;12.47;85.93;99052.22;7391194;19;20539;-79
2021/12/01 03:13:02;;;;;;;3.67;0.30;;;;;;;12.49;85.61;99054.66;7386719;19;20094;-78
2021/12/01 03:15:29;;;;;;;3.42;0.20;;;;;;;12.50;85.82;99066.81;7387416;19;20492;-79
2021/12/01 03:17:58;;;;;;;4.47;0.85;;;;;;;12.48;85.39;99077.59;7384140;19;20031;-79
2021/12/01 03:20:26;;;;;;;1.67;0.30;;;;;;;12.51;85.54;99078.97;7385822;19;20083;-79
2021/12/01 03:22:53;;;;;;;3.30;0.20;;;;;;;12.52;85.30;99081.41;7387662;19;20014;-79
2021/12/01 03:25:20;;;;;;;3.53;0.50;;;;;;;12.52;84.61;99085.88;7386282;19;20011;-78
2021/12/01 03:27:46;;;;;;;3.58;0.82;;;;;;;12.54;85.30;99078.59;7387509;19;20085;-78
2021/12/01 03:30:14;;;;;;;2.00;0.20;;;;;;;12.54;84.51;99075.94;7385219;19;20007;-79
2021/12/01 03:32:41;;;;;;;2.65;0.25;;;;;;;12.50;83.20;99067.63;7387338;19;20022;-78
2021/12/01 03:35:11;;;;;;;2.75;0.30;;;;;;;12.49;83.18;99057.28;7388228;19;20091;-78
2021/12/01 03:37:41;;;;;;;2.53;0.17;;;;;;;12.51;83.07;99060.53;7381821;19;20066;-79
2021/12/01 03:40:11;;;;;;;4.00;0.95;;;;;;;12.51;83.74;99058.69;7384957;19;20022;-79
2021/12/01 03:42:38;;;;;;;1.60;0.20;;;;;;;12.52;83.58;99044.50;7384059;19;20409;-80
2021/12/01 03:45:06;;;;;;;2.00;0.20;;;;;;;12.51;83.31;99048.13;7388333;19;20070;-79
2021/12/01 03:47:33;;;;;;;2.17;0.30;;;;;;;12.50;82.66;99054.44;7385599;19;20017;-78
2021/12/01 03:50:01;;;;;;;3.65;0.20;;;;;;;12.52;83.20;99052.41;7388624;19;20038;-79
2021/12/01 03:52:27;;;;;;;2.53;0.20;;;;;;;12.53;83.15;99055.84;7386409;19;20070;-78
2021/12/01 03:54:54;;;;;;;4.30;0.32;;;;;;;12.55;83.30;99046.69;7386689;19;20066;-79
2021/12/01 03:57:22;;;;;;;1.33;0.22;;;;;;;12.57;83.29;99041.22;7384373;19;20011;-79
2021/12/01 03:59:49;;;;;;;4.95;0.40;;;;;;;12.58;83.54;99038.38;7386991;19;20007;-79
2021/12/01 04:02:19;;;;;;;4.32;0.50;;;;;;;12.59;83.62;99047.09;7382017;19;20062;-79
2021/12/01 04:04:46;;;;;;;4.65;0.50;;;;;;;12.59;83.25;99047.09;7383906;19;20014;-78
2021/12/01 04:07:13;;;;;;;1.55;0.30;;;;;;;12.57;83.71;99044.66;7382619;19;20021;-78
2021/12/01 04:09:43;;;;;;;5.88;0.40;;;;;;;12.58;84.08;99043.66;7385772;19;20021;-79
2021/12/01 04:12:11;;;;;;;4.82;0.25;;;;;;;12.59;83.60;99044.47;7385073;19;20015;-78
2021/12/01 04:14:38;;;;;;;4.82;0.40;;;;;;;12.58;83.76;99043.66;7384960;19;20014;-79
2021/12/01 04:17:05;;;;;;;2.53;0.32;;;;;;;12.57;83.63;99042.03;7383267;19;20460;-79
2021/12/01 04:19:33;;;;;;;3.30;0.47;;;;;;;12.61;84.37;99045.06;7385870;19;20080;-79
2021/12/01 04:22:00;;;;;;;5.07;0.40;;;;;;;12.63;84.26;99040.38;7382454;19;20017;-79
2021/12/01 04:24:27;;;;;;;3.85;0.30;;;;;;;12.63;83.66;99048.31;7384373;19;20501;-78
2021/12/01 04:26:54;;;;;;;2.75;0.75;;;;;;;12.61;83.57;99052.97;7383375;19;20082;-80
2021/12/01 04:29:21;;;;;;;2.47;0.30;;;;;;;12.58;83.15;99054.22;7385065;19;20023;-79
2021/12/01 04:31:49;;;;;;;1.83;0.40;;;;;;;12.58;83.30;99061.31;7383141;19;20026;-79
2021/12/01 04:34:16;;;;;;;3.53;0.35;;;;;;;12.57;83.92;99068.41;7386071;19;20115;-79
2021/12/01 04:36:44;;;;;;;3.47;1.20;;;;;;;12.55;83.50;99069.63;7380425;19;20338;-79
2021/12/01 04:39:14;;;;;;;3.13;0.32;;;;;;;12.52;83.07;99065.59;7385543;19;20023;-79
2021/12/01 04:41:50;;;;;;;3.50;0.43;;;;;;;12.53;83.32;99072.50;7381844;19;20007;-78
2021/12/01 04:44:19;;;;;;;2.60;0.30;;;;;;;12.50;83.06;99064.16;7387078;19;20006;-78
2021/12/01 04:46:48;;;;;;;1.80;0.20;;;;;;;12.49;83.71;99071.31;7382391;19;20014;-79
2021/12/01 04:49:18;;;;;;;2.72;0.40;;;;;;;12.49;83.93;99078.41;7387597;19;20333;-80
2021/12/01 04:51:51;;;;;;;2.85;0.30;;;;;;;12.50;83.91;99082.63;7384926;19;20467;-79
2021/12/01 04:54:18;;;;;;;;;;;;;;;12.50;83.63;99085.28;7386332;19;20010;-79
2021/12/01 04:56:47;;;;;;;5.63;1.92;;;;;;;12.43;83.40;99078.22;7382384;19;20297;-79
2021/12/01 04:59:15;;;;;;;2.55;0.30;;;;;;;12.42;83.25;99089.78;7385271;19;20094;-79
2021/12/01 05:01:42;;;;;;;1.15;0.28;;;;;;;12.37;81.84;99083.50;7383674;19;20015;-78
2021/12/01 05:04:10;;;;;;;1.35;0.20;;;;;;;12.37;81.73;99092.22;7387069;19;20039;-78
2021/12/01 05:06:39;;;;;;;1.70;0.10;;;;;;;12.36;81.63;99090.59;7381969;19;20018;-79
2021/12/01 05:09:07;;;;;;;2.55;0.10;;;;;;;12.35;81.56;99104.81;7383648;19;20014;-78
2021/12/01 05:11:34;;;;;;;2.97;0.10;;;;;;;12.36;81.35;99113.53;7383999;19;20011;-79
2021/12/01 05:14:10;;;;;;;1.17;0.10;;;;;;;12.34;80.36;99115.56;7383146;19;20011;-78
2021/12/01 05:16:39;;;;;;;0.70;0.10;;;;;;;12.31;80.24;99116.78;7383734;19;20014;-80
2021/12/01 05:19:06;;;;;;;2.28;0.10;;;;;;;12.32;79.81;99112.31;7381838;19;20092;-78
2021/12/01 05:21:34;;;;;;;1.90;0.10;;;;;;;12.33;80.46;99111.31;7380153;19;20105;-79
2021/12/01 05:24:02;;;;;;;0.82;0.00;;;;;;;12.32;79.67;99113.13;7383661;19;20126;-79
2021/12/01 05:26:30;;;;;;;3.30;0.10;;;;;;;12.31;79.68;99105.41;7381788;19;20388;-79
2021/12/01 05:28:56;;;;;;;2.00;0.70;;;;;;;12.34;81.44;99108.44;7380639;19;20069;-78
2021/12/01 05:31:23;;;;;;;0.20;0.10;;;;;;;12.33;80.05;99108.69;7383290;19;20019;-79
2021/12/01 05:33:51;;;;;;;0.28;0.00;;;;;;;12.30;78.00;99112.53;7385595;19;20344;-78
2021/12/01 05:36:18;;;;;;;1.60;0.00;;;;;;;12.27;77.79;99115.59;7380929;19;20020;-79
2021/12/01 05:38:45;;;;;;;1.45;0.10;;;;;;;12.29;77.30;99118.03;7385766;19;20099;-78
2021/12/01 05:41:12;;;;;;;0.60;0.25;;;;;;;12.27;77.88;99128.78;7384645;19;20507;-78
2021/12/01 05:43:39;;;;;;;1.38;0.00;;;;;;;12.26;77.64;99127.16;7383974;19;20020;-79
2021/12/01 05:46:06;;;;;;;1.85;0.38;;;;;;;12.29;77.22;99128.56;7385115;19;20017;-79
2021/12/01 05:48:33;;;;;;;1.95;0.13;;;;;;;12.29;77.72;99136.47;7383533;19;20040;-79
2021/12/01 05:51:00;;;;;;;0.73;0.00;;;;;;;12.29;76.54;99131.22;7384830;19;20019;-79
2021/12/01 05:53:27;;;;;;;0.20;0.00;;;;;;;12.28;76.14;99134.84;7380365;19;20017;-80
2021/12/01 05:55:54;;;;;;;0.52;0.00;;;;;;;12.25;74.58;99135.25;7384574;19;20093;-78
2021/12/01 05:58:21;;;;;;;0.85;0.10;;;;;;;12.24;75.93;99123.88;7382171;19;20080;-79
2021/12/01 06:00:49;;;;;;;0.32;0.00;;;;;;;12.24;75.87;99141.56;7386922;19;20017;-79
2021/12/01 06:03:16;;;;;;;0.20;0.00;;;;;;;12.24;75.34;99147.63;7392882;19;20010;-78
2021/12/01 06:05:44;;;;;;;2.85;0.00;;;;;;;12.24;74.70;99155.53;7391211;19;20011;-78
2021/12/01 06:08:12;;;;;;;1.70;0.10;;;;;;;12.23;74.59;99148.66;7387448;19;20070;-79
2021/12/01 06:10:40;;;;;;;0.35;0.00;;;;;;;12.24;74.29;99166.09;7392012;19;20089;-78
2021/12/01 06:13:09;;;;;;;1.83;0.10;;;;;;;12.19;72.94;99163.25;7386672;19;20035;-79
2021/12/01 06:15:37;;;;;;;0.73;0.00;;;;;;;12.23;73.94;99169.75;7389289;19;20352;-78
2021/12/01 06:18:04;;;;;;;1.27;0.00;;;;;;;12.21;74.28;99181.50;7389382;19;20014;-79
2021/12/01 06:20:31;;;;;;;0.55;0.20;;;;;;;12.16;75.23;99194.50;7385998;19;20555;-79
2021/12/01 06:22:58;;;;;;;0.75;0.00;;;;;;;12.09;76.22;99196.34;7386847;19;20010;-79
2021/12/01 06:25:26;;;;;;;1.10;0.00;;;;;;;12.07;77.32;99190.44;7390694;19;20449;-78
2021/12/01 06:27:54;;;;;;;1.70;0.00;;;;;;;11.99;77.65;99188.81;7387572;19;20010;-79
2021/12/01 06:30:23;;;;;;;0.10;0.00;;;;;;;11.92;78.11;99191.47;7387967;19;20484;-78
2021/12/01 06:32:50;;;;;;;0.98;0.00;;;;;;;11.88;78.24;99197.34;7389438;19;20475;-79
2021/12/01 06:35:18;;;;;;;0.60;0.00;;;;;;;11.83;78.13;99207.69;7386403;19;20006;-78
2021/12/01 06:37:46;;;;;;;1.15;0.10;;;;;;;11.80;78.77;99211.50;7384018;19;20018;-78
2021/12/01 06:40:14;;;;;;;0.35;0.00;;;;;;;11.75;78.84;99207.84;7389685;19;20013;-78
2021/12/01 06:42:41;;;;;;;0.80;0.00;;;;;;;11.70;78.29;99197.88;7385212;19;20014;-79
2021/12/01 06:45:10;;;;;;;2.17;0.10;;;;;;;11.62;78.38;99220.97;7389319;19;20014;-79
2021/12/01 06:47:38;;;;;;;0.30;0.00;;;;;;;11.61;78.81;99217.53;7389949;19;20078;-79
2021/12/01 06:50:07;;;;;;;0.93;0.10;;;;;;;11.68;82.62;99218.38;7390423;19;20067;-79
2021/12/01 06:52:34;;;;;;;0.57;0.10;;;;;;;11.75;86.04;99218.38;7385696;19;20487;-79
2021/12/01 06:55:03;;;;;;;113.40;15.55;;;;;;;11.79;86.95;99225.69;7388833;19;20086;-79
2021/12/01 06:57:29;;;;;;;1.10;0.73;;;;;;;11.78;85.84;99229.34;7389532;19;20495;-80
2021/12/01 06:59:57;;;;;;;0.57;0.30;;;;;;;11.73;83.32;99236.22;7387138;19;20255;-79
2021/12/01 07:02:24;;;;;;;1.10;0.20;;;;;;;11.66;80.67;99244.09;7387324;19;20383;-80
2021/12/01 07:04:52;;;;;;;0.35;0.10;;;;;;;11.65;79.22;99239.81;7391447;19;20499;-80
2021/12/01 07:07:19;;;;;;;0.28;0.00;;;;;;;11.58;78.04;99231.06;7385003;19;20097;-78
2021/12/01 07:09:50;;;;;;;1.50;0.00;;;;;;;11.52;77.83;99240.63;7388769;19;20373;-79
2021/12/01 07:12:17;;;;;;;0.22;0.00;;;;;;;11.48;77.79;99247.25;7385797;19;20006;-79
2021/12/01 07:14:44;;;;;;;0.20;0.10;;;;;;;11.47;77.79;99236.94;7389600;19;20090;-80
2021/12/01 07:17:12;;;;;;;0.45;0.00;;;;;;;11.44;78.08;99238.13;7385182;19;20389;-79
2021/12/01 07:19:39;;;;;;;0.70;0.00;;;;;;;11.37;77.09;99239.97;7389973;19;20010;-79
2021/12/01 07:22:05;;;;;;;1.30;0.00;;;;;;;11.32;77.24;99245.00;7383182;19;20014;-78
2021/12/01 07:24:33;;;;;;;0.20;0.00;;;;;;;11.31;77.70;99240.75;7389694;19;20021;-79
2021/12/01 07:27:01;;;;;;;0.25;0.00;;;;;;;11.29;76.89;99247.19;7383458;19;20105;-79
2021/12/01 07:29:30;;;;;;;0.47;0.00;;;;;;;11.26;76.30;99240.50;7389731;19;20535;-80
2021/12/01 07:31:57;;;;;;;1.35;0.10;;;;;;;11.27;76.39;99250.03;7388595;19;20027;-81
2021/12/01 07:34:24;;;;;;;1.08;0.00;;;;;;;11.27;76.11;99247.41;7391573;19;20027;-78
2021/12/01 07:36:51;;;;;;;1.17;0.00;;;;;;;11.26;76.88;99264.22;7385508;19;20015;-79
2021/12/01 07:39:20;;;;;;;0.20;0.00;;;;;;;11.26;76.52;99268.66;7388359;19;20024;-79
2021/12/01 07:41:48;;;;;;;3.53;0.03;;;;;;;11.23;76.31;99263.75;7385634;19;20014;-79
2021/12/01 07:44:16;;;;;;;0.47;0.00;;;;;;;11.24;76.60;99268.03;7386988;19;20532;-79
2021/12/01 07:46:43;;;;;;;1.35;0.00;;;;;;;11.24;76.46;99262.75;7389571;19;20017;-79
2021/12/01 07:49:10;;;;;;;0.82;0.08;;;;;;;11.21;76.35;99269.25;7390061;19;20039;-80
2021/12/01 07:51:37;;;;;;;0.15;0.00;;;;;;;11.22;76.81;99284.03;7389104;19;20014;-79
2021/12/01 07:54:04;;;;;;;1.13;0.00;;;;;;;11.17;76.25;99275.09;7384680;19;20034;-79
2021/12/01 07:56:32;;;;;;;1.00;0.00;;;;;;;11.18;77.32;99268.81;7384591;19;20010;-79
2021/12/01 07:58:59;;;;;;;1.15;0.00;;;;;;;11.19;76.98;99279.16;7388469;19;20027;-80
2021/12/01 08:01:26;;;;;;;1.75;0.10;;;;;;;11.22;76.69;99283.22;7384949;19;20017;-79
2021/12/01 08:03:54;;;;;;;0.45;0.10;;;;;;;11.22;77.01;99281.41;7388374;19;20014;-79
2021/12/01 08:06:21;;;;;;;0.57;0.10;;;;;;;11.21;76.40;99282.41;7384056;19;20010;-79
2021/12/01 08:08:48;;;;;;;0.30;0.00;;;;;;;11.18;76.92;99287.22;7386165;19;20010;-79
2021/12/01 08:11:15;;;;;;;0.68;0.10;;;;;;;11.16;75.97;99290.09;7387145;19;20360;-81
2021/12/01 08:13:42;;;;;;;0.15;0.05;;;;;;;11.16;76.27;99295.34;7388600;19;20023;-80
2021/12/01 08:16:14;;;;;;;2.07;0.10;;;;;;;11.18;76.59;99295.13;7385759;19;20014;-81
2021/12/01 08:18:41;;;;;;;0.57;0.10;;;;;;;11.19;75.49;99296.75;7384008;19;20281;-80
2021/12/01 08:21:08;;;;;;;0.17;0.10;;;;;;;11.19;76.39;99302.84;7384607;19;20499;-80
2021/12/01 08:23:35;;;;;;;0.20;0.03;;;;;;;11.21;76.98;99310.56;7383140;19;20472;-79
2021/12/01 08:26:04;;;;;;;0.45;0.10;;;;;;;11.24;77.42;99297.81;7387488;19;20023;-78
2021/12/01 08:28:31;;;;;;;1.65;0.15;;;;;;;11.19;75.53;99312.56;7383919;19;20331;-79
2021/12/01 08:30:59;;;;;;;1.30;0.50;;;;;;;11.18;77.03;99310.94;7384855;19;20018;-78
2021/12/01 08:33:26;;;;;;;0.60;0.20;;;;;;;11.22;78.33;99323.53;7386124;19;20015;-78
2021/12/01 08:35:54;;;;;;;1.80;0.10;;;;;;;11.23;77.72;99319.06;7384482;19;20082;-79
2021/12/01 08:38:38;;;;;;;0.63;0.20;;;;;;;11.25;77.70;99315.22;7386976;19;20505;-79
2021/12/01 08:41:06;;;;;;;1.85;0.10;;;;;;;11.28;77.49;99320.09;7384270;19;20018;-79
2021/12/01 08:43:34;;;;;;;0.30;0.00;;;;;;;11.32;77.94;99318.72;7386333;19;20006;-78
2021/12/01 08:46:03;;;;;;;0.50;0.10;;;;;;;11.32;77.15;99334.53;7386328;19;20440;-79
2021/12/01 08:48:31;;;;;;;1.45;0.10;;;;;;;11.31;77.33;99325.00;7387018;19;20011;-79
2021/12/01 08:51:01;;;;;;;0.10;0.00;;;;;;;11.29;77.28;99331.44;7386814;19;20011;-79
2021/12/01 08:53:35;;;;;;;1.38;0.20;;;;;;;11.26;76.98;99329.22;7383549;19;20018;-79
2021/12/01 08:56:04;;;;;;;0.60;0.13;;;;;;;11.24;77.64;99326.78;7382122;19;20010;-79
2021/12/01 08:58:31;;;;;;;0.70;0.10;;;;;;;11.23;78.40;99330.41;7387025;19;20038;-80
2021/12/01 09:00:59;;;;;;;0.88;0.10;;;;;;;11.25;78.28;99331.03;7385324;19;20721;-78
2021/12/01 09:03:28;;;;;;;1.77;0.40;;;;;;;11.28;78.77;99337.72;7385266;19;20340;-79
2021/12/01 09:05:55;;;;;;;3.65;1.70;;;;;;;11.32;79.66;99333.72;7385697;19;20015;-79
2021/12/01 09:08:23;;;;;;;0.55;0.20;;;;;;;11.35;79.95;99335.94;7381563;19;20579;-78
2021/12/01 09:10:54;;;;;;;1.85;0.43;;;;;;;11.34;79.64;99334.31;7385679;19;20094;-79
2021/12/01 09:13:24;;;;;;;1.25;0.10;;;;;;;11.34;79.14;99334.31;7381896;19;20048;-79
2021/12/01 09:15:55;;;;;;;2.28;0.40;;;;;;;11.38;79.76;99338.19;7383303;19;20018;-79
2021/12/01 09:18:27;;;;;;;4.63;0.50;;;;;;;11.43;80.74;99335.75;7385635;19;20010;-79
2021/12/01 09:20:54;;;;;;;0.47;0.10;;;;;;;11.39;78.98;99335.34;7383472;19;20540;-78
2021/12/01 09:23:22;;;;;;;1.13;0.20;;;;;;;11.38;78.12;99340.81;7385800;19;20130;-78
2021/12/01 09:25:49;;;;;;;0.68;0.10;;;;;;;11.37;78.38;99336.56;7383805;19;20319;-79
2021/12/01 09:28:22;;;;;;;0.73;0.30;;;;;;;11.35;78.80;99344.66;7384278;19;20042;-80
2021/12/01 09:30:50;;;;;;;;;;;;;;;11.39;79.11;99345.06;7382970;19;20014;-78
2021/12/01 09:33:18;;;;;;;0.73;0.40;;;;;;;11.39;78.81;99343.25;7386863;19;19922;-78
2021/12/01 09:35:46;;;;;;;2.42;0.20;;;;;;;11.39;77.62;99342.44;7388953;19;20398;-79
2021/12/01 09:38:16;;;;;;;1.08;0.10;;;;;;;11.41;77.72;99348.34;7391009;19;20014;-78
2021/12/01 09:40:47;;;;;;;1.75;0.20;;;;;;;11.45;77.80;99358.28;7388373;19;20032;-78
2021/12/01 09:43:16;;;;;;;2.28;0.10;;;;;;;11.48;76.99;99349.97;7391567;19;20363;-78
2021/12/01 09:45:45;;;;;;;1.55;0.20;;;;;;;11.48;76.24;99357.88;7392363;19;20027;-78
2021/12/01 09:48:15;;;;;;;1.45;0.10;;;;;;;11.46;76.25;99357.28;7391349;19;20329;-78
2021/12/01 09:50:54;;;;;;;1.52;0.52;;;;;;;11.47;77.27;99352.84;7391329;19;20566;-78
2021/12/01 09:53:21;;;;;;;2.22;0.20;;;;;;;11.40;75.73;99363.31;7389427;19;20026;-80
2021/12/01 09:55:49;;;;;;;1.10;0.10;;;;;;;11.36;75.00;99359.47;7390153;19;20018;-78
2021/12/01 09:58:23;;;;;;;2.38;0.10;;;;;;;11.36;75.31;99361.28;7390160;19;20490;-78
2021/12/01 10:00:54;;;;;;;5.88;0.10;;;;;;;11.36;75.45;99345.47;7392182;19;20406;-79
2021/12/01 10:03:22;;;;;;;1.98;0.10;;;;;;;11.40;76.55;99351.97;7390473;19;20015;-79
2021/12/01 10:06:04;;;;;;;1.75;0.10;;;;;;;11.42;75.48;99357.88;7391089;19;20488;-79
2021/12/01 10:08:38;;;;;;;1.50;0.10;;;;;;;11.42;75.64;99363.94;7386956;19;20086;-78
2021/12/01 10:11:08;;;;;;;2.00;0.10;;;;;;;11.42;75.03;99356.06;7386961;19;20778;-78
2021/12/01 10:13:39;;;;;;;2.72;0.30;;;;;;;11.44;76.30;99361.91;7388688;19;20070;-79
2021/12/01 10:16:09;;;;;;;0.65;0.20;;;;;;;11.45;75.94;99365.38;7390938;19;20036;-78
2021/12/01 10:18:43;;;;;;;4.22;0.10;;;;;;;11.39;74.53;99361.69;7391337;19;20491;-79
2021/12/01 10:21:19;;;;;;;1.75;0.00;;;;;;;11.40;75.17;99365.97;7390047;19;20015;-78
2021/12/01 10:23:50;;;;;;;4.35;0.38;;;;;;;11.42;75.50;99377.13;7387443;19;20010;-79
2021/12/01 10:26:22;;;;;;;1.48;0.13;;;;;;;11.41;74.70;99370.22;7392422;19;20031;-79
2021/12/01 10:28:55;;;;;;;2.97;0.15;;;;;;;11.38;74.20;99369.78;7389332;19;20098;-78
2021/12/01 10:31:32;;;;;;;2.15;0.10;;;;;;;11.35;73.67;99368.34;7388519;19;20074;-78
2021/12/01 10:34:18;;;;;;;2.65;0.10;;;;;;;11.36;74.27;99370.00;7391439;19;20014;-79
2021/12/01 10:36:48;;;;;;;0.60;0.20;;;;;;;11.39;74.43;99363.50;7387346;19;20027;-78
2021/12/01 10:39:15;;;;;;;5.30;0.30;;;;;;;11.40;74.30;99359.88;7392662;19;20031;-79
2021/12/01 10:41:43;;;;;;;5.45;0.52;;;;;;;11.41;73.65;99354.41;7386336;19;20015;-79
2021/12/01 10:44:16;;;;;;;3.45;0.75;;;;;;;11.46;73.16;99367.00;7387693;19;20386;-78
2021/12/01 10:47:11;;;;;;;3.10;0.30;;;;;;;11.45;72.97;99360.91;7386764;19;20018;-79
2021/12/01 10:49:42;;;;;;;3.63;0.30;;;;;;;11.47;72.62;99366.81;7386888;19;20018;-78
2021/12/01 10:52:30;;;;;;;4.45;0.32;;;;;;;11.50;72.08;99358.50;7386212;19;20027;-78
2021/12/01 10:55:11;;;;;;;1.92;0.17;;;;;;;11.54;71.97;99349.19;7385509;19;20081;-78
2021/12/01 10:57:43;;;;;;;4.82;0.20;;;;;;;11.60;71.36;99358.16;7386423;19;20030;-78
2021/12/01 11:00:19;;;;;;;6.85;0.50;;;;;;;11.64;70.99;99353.28;7388735;19;20038;-78
2021/12/01 11:02:47;;;;;;;3.90;0.22;;;;;;;11.67;69.74;99348.47;7389024;19;20074;-79
2021/12/01 11:05:31;;;;;;;3.15;0.50;;;;;;;11.74;69.62;99344.03;7390936;19;20106;-79
2021/12/01 11:08:10;;;;;;;4.25;0.30;;;;;;;11.73;69.20;99346.91;7387479;19;20014;-78
2021/12/01 11:10:38;;;;;;;4.50;0.30;;;;;;;11.73;68.98;99349.53;7388848;19;20034;-79
2021/12/01 11:13:06;;;;;;;5.82;0.30;;;;;;;11.78;69.18;99340.03;7387165;19;20018;-78
2021/12/01 11:15:35;;;;;;;2.80;0.20;;;;;;;11.79;69.58;99335.53;7388640;19;20444;-78
2021/12/01 11:18:29;;;;;;;3.08;0.22;;;;;;;11.76;68.91;99347.31;7388498;19;20379;-78
2021/12/01 11:21:16;;;;;;;5.53;0.22;;;;;;;11.75;69.34;99336.97;7388209;19;20014;-79
2021/12/01 11:23:55;;;;;;;10.15;0.60;;;;;;;11.73;68.47;99344.25;7387760;19;20018;-78
2021/12/01 11:26:26;;;;;;;4.50;0.45;;;;;;;11.69;67.58;99343.78;7385082;19;20034;-78
2021/12/01 11:28:57;;;;;;;11.63;3.10;;;;;;;11.69;67.37;99345.63;7387724;19;20022;-78
2021/12/01 11:31:37;;;;;;;4.05;0.50;;;;;;;11.71;68.37;99344.41;7388630;19;20138;-78
2021/12/01 11:34:07;;;;;;;3.97;0.40;;;;;;;11.71;68.75;99343.59;7389686;19;20024;-79
2021/12/01 11:36:43;;;;;;;5.50;0.30;;;;;;;11.73;67.97;99352.97;7391507;19;20094;-77
2021/12/01 11:39:13;;;;;;;6.43;0.30;;;;;;;11.79;68.84;99335.53;7387676;19;20011;-79
2021/12/01 11:41:45;;;;;;;2.72;0.30;;;;;;;11.79;67.08;99349.53;7389512;19;20026;-79
2021/12/01 11:44:14;;;;;;;6.28;0.28;;;;;;;11.75;66.47;99347.50;7385308;19;20468;-79
2021/12/01 11:46:55;;;;;;;4.57;0.50;;;;;;;11.78;67.94;99358.47;7385863;19;20044;-80
2021/12/01 11:49:33;;;;;;;4.72;0.20;;;;;;;11.84;68.51;99354.22;7375645;19;20021;-78
2021/12/01 11:52:04;;;;;;;2.85;0.20;;;;;;;11.86;67.24;99355.66;7384328;19;20010;-78